Time;durP1;ratioP1;P1;durP2;ratioP2;P2;SDS_P1;SDS_P2;PMS_P1;PMS_P2;Temp;Humidity;BMP_temperature;BMP_pressure;BME280_temperature;BME280_humidity;BME280_pressure;Samples;Min_cycle;Max_cycle;Signal;HPM_P1;HPM_P2
2021/04/03 00:00:37;;;;;;;61.53;34.42;;;;;;;;;;4995090;28;20529;-74
2021/04/03 00:03:42;;;;;;;51.70;34.53;;;;;;;;;;4994617;28;20050;-74
2021/04/03 00:06:46;;;;;;;53.60;35.42;;;;;;;;;;4982465;28;20045;-74
2021/04/03 00:09:51;;;;;;;52.97;34.85;;;;;;;;;;4994793;28;20049;-75
2021/04/03 00:12:55;;;;;;;54.30;34.30;;;;;;;;;;4994882;28;20053;-74
2021/04/03 00:15:59;;;;;;;49.25;34.40;;;;;;;;;;4994121;28;20049;-74
2021/04/03 00:19:04;;;;;;;52.70;34.10;;;;;;;;;;4994373;28;20049;-74
2021/04/03 00:22:08;;;;;;;51.22;34.67;;;;;;;;;;4994523;28;20046;-74
2021/04/03 00:25:13;;;;;;;50.83;33.20;;;;;;;;;;4994561;28;20073;-73
2021/04/03 00:28:18;;;;;;;53.55;33.15;;;;;;;;;;4994075;28;20106;-75
2021/04/03 00:31:23;;;;;;;47.67;32.78;;;;;;;;;;4993420;28;20406;-75
2021/04/03 00:34:27;;;;;;;54.17;34.67;;;;;;;;;;4955563;28;20395;-75
2021/04/03 00:37:31;;;;;;;50.40;34.10;;;;;;;;;;4955774;29;20050;-73
2021/04/03 00:40:37;;;;;;;53.38;34.35;;;;;;;;;;4955557;28;20054;-74
2021/04/03 00:43:41;;;;;;;53.40;35.95;;;;;;;;;;4955259;28;20058;-74
2021/04/03 00:46:46;;;;;;;50.13;35.17;;;;;;;;;;4955001;28;20050;-74
2021/04/03 00:49:51;;;;;;;50.63;33.80;;;;;;;;;;4954351;28;20039;-74
2021/04/03 00:52:56;;;;;;;52.45;36.17;;;;;;;;;;4955339;29;20066;-74
2021/04/03 00:56:02;;;;;;;50.85;33.83;;;;;;;;;;4954411;29;20050;-75
2021/04/03 00:59:09;;;;;;;55.22;32.35;;;;;;;;;;4965270;28;20046;-75
2021/04/03 01:02:15;;;;;;;47.60;33.60;;;;;;;;;;4953953;29;20040;-75
2021/04/03 01:05:22;;;;;;;45.42;31.50;;;;;;;;;;4954875;29;20042;-75
2021/04/03 01:08:30;;;;;;;44.40;29.85;;;;;;;;;;4965222;28;20050;-74
2021/04/03 01:11:39;;;;;;;48.58;31.00;;;;;;;;;;4955022;28;20053;-74
2021/04/03 01:14:55;;;;;;;47.13;30.85;;;;;;;;;;4965428;28;20054;-74
2021/04/03 01:18:01;;;;;;;41.97;29.90;;;;;;;;;;4953550;28;20050;-75
2021/04/03 01:21:08;;;;;;;41.85;28.30;;;;;;;;;;4965029;28;20046;-74
2021/04/03 01:24:32;;;;;;;46.42;30.02;;;;;;;;;;4953591;28;20046;-74
2021/04/03 01:27:42;;;;;;;46.15;30.30;;;;;;;;;;4964656;28;20550;-75
2021/04/03 01:30:48;;;;;;;43.23;28.77;;;;;;;;;;4953803;28;20046;-74
2021/04/03 01:33:55;;;;;;;38.55;27.17;;;;;;;;;;4971018;28;20062;-75
2021/04/03 01:37:05;;;;;;;38.40;27.67;;;;;;;;;;4972736;28;20042;-75
2021/04/03 01:40:14;;;;;;;38.90;27.05;;;;;;;;;;4973496;28;20050;-75
2021/04/03 01:43:20;;;;;;;37.10;25.83;;;;;;;;;;4972567;28;20050;-75
2021/04/03 01:46:28;;;;;;;35.95;25.88;;;;;;;;;;4973519;28;20065;-75
2021/04/03 01:49:33;;;;;;;36.63;25.65;;;;;;;;;;4973676;28;20410;-73
2021/04/03 01:52:39;;;;;;;36.10;25.77;;;;;;;;;;4972628;28;20050;-74
2021/04/03 01:55:44;;;;;;;36.38;24.58;;;;;;;;;;4973499;28;20529;-74
2021/04/03 01:58:49;;;;;;;30.52;23.42;;;;;;;;;;4972608;28;20046;-74
2021/04/03 02:01:55;;;;;;;33.85;21.92;;;;;;;;;;4972744;28;20047;-75
2021/04/03 02:05:01;;;;;;;31.80;21.20;;;;;;;;;;4972324;28;20506;-75
2021/04/03 02:08:08;;;;;;;28.80;21.92;;;;;;;;;;4972132;28;20045;-73
2021/04/03 02:11:14;;;;;;;32.13;21.70;;;;;;;;;;4972277;28;20406;-74
2021/04/03 02:14:20;;;;;;;28.42;20.05;;;;;;;;;;4972538;28;20046;-74
2021/04/03 02:17:25;;;;;;;28.42;19.90;;;;;;;;;;4972471;28;20046;-74
2021/04/03 02:20:32;;;;;;;36.17;22.80;;;;;;;;;;4971981;28;20053;-74
2021/04/03 02:23:37;;;;;;;33.10;22.50;;;;;;;;;;4971913;28;20058;-75
2021/04/03 02:26:41;;;;;;;35.38;23.55;;;;;;;;;;4972367;28;20410;-75
2021/04/03 02:29:46;;;;;;;36.47;23.17;;;;;;;;;;4974744;28;20050;-74
2021/04/03 02:32:54;;;;;;;30.35;21.45;;;;;;;;;;4978453;28;20057;-75
2021/04/03 02:35:59;;;;;;;37.97;23.05;;;;;;;;;;4978845;28;20046;-75
2021/04/03 02:39:04;;;;;;;28.05;19.67;;;;;;;;;;4978592;28;20045;-74
2021/04/03 02:42:11;;;;;;;32.78;20.55;;;;;;;;;;4978546;28;20045;-75
2021/04/03 02:45:17;;;;;;;30.27;20.55;;;;;;;;;;4978916;28;20049;-75
2021/04/03 02:48:21;;;;;;;35.03;22.52;;;;;;;;;;4978534;28;20050;-74
2021/04/03 02:51:31;;;;;;;35.17;24.52;;;;;;;;;;4978644;28;20061;-75
2021/04/03 02:54:36;;;;;;;42.75;26.25;;;;;;;;;;4978779;28;20050;-74
2021/04/03 02:57:41;;;;;;;34.35;23.90;;;;;;;;;;4978291;28;20390;-75
2021/04/03 03:00:51;;;;;;;34.78;22.60;;;;;;;;;;4978550;28;20061;-74
2021/04/03 03:03:56;;;;;;;30.80;21.80;;;;;;;;;;4978053;28;20517;-75
2021/04/03 03:07:03;;;;;;;32.05;21.40;;;;;;;;;;4979311;28;20050;-74
2021/04/03 03:10:08;;;;;;;33.58;21.33;;;;;;;;;;4978459;28;20049;-75
2021/04/03 03:13:14;;;;;;;28.65;19.13;;;;;;;;;;4989424;28;20042;-74
2021/04/03 03:16:23;;;;;;;31.90;20.33;;;;;;;;;;4989441;28;20046;-75
2021/04/03 03:19:28;;;;;;;28.83;19.52;;;;;;;;;;4979214;28;20401;-75
2021/04/03 03:22:34;;;;;;;21.35;15.73;;;;;;;;;;4977741;28;20050;-75
2021/04/03 03:25:42;;;;;;;21.88;15.32;;;;;;;;;;4978125;28;20050;-74
2021/04/03 03:28:49;;;;;;;21.83;14.15;;;;;;;;;;4978590;28;20042;-74
2021/04/03 03:31:54;;;;;;;21.95;15.20;;;;;;;;;;4979102;28;20049;-74
2021/04/03 03:35:04;;;;;;;23.17;15.23;;;;;;;;;;4985833;28;20057;-75
2021/04/03 03:38:08;;;;;;;19.80;15.15;;;;;;;;;;4998010;28;20398;-75
2021/04/03 03:41:16;;;;;;;24.95;15.43;;;;;;;;;;4985038;28;20091;-75
2021/04/03 03:44:22;;;;;;;25.50;15.25;;;;;;;;;;4982730;28;20061;-74
2021/04/03 03:47:27;;;;;;;21.80;15.85;;;;;;;;;;4982802;28;20058;-74
2021/04/03 03:50:34;;;;;;;25.00;15.95;;;;;;;;;;4982872;28;20410;-75
2021/04/03 03:53:41;;;;;;;25.23;16.65;;;;;;;;;;4982820;28;20057;-75
2021/04/03 03:56:47;;;;;;;26.10;16.90;;;;;;;;;;4994085;28;20053;-74
2021/04/03 03:59:53;;;;;;;23.48;16.70;;;;;;;;;;4982710;28;20045;-75
2021/04/03 04:02:57;;;;;;;24.50;16.75;;;;;;;;;;4982366;28;20077;-74
2021/04/03 04:06:03;;;;;;;25.25;17.52;;;;;;;;;;4982764;28;20045;-75
2021/04/03 04:09:08;;;;;;;22.88;15.68;;;;;;;;;;4982685;28;20053;-74
2021/04/03 04:12:19;;;;;;;25.27;15.85;;;;;;;;;;4994769;28;20695;-75
2021/04/03 04:15:29;;;;;;;27.80;15.15;;;;;;;;;;4982700;28;20053;-75
2021/04/03 04:18:35;;;;;;;23.88;16.40;;;;;;;;;;4982193;28;20049;-75
2021/04/03 04:21:43;;;;;;;24.48;16.95;;;;;;;;;;4982338;28;20076;-74
2021/04/03 04:24:47;;;;;;;27.88;16.65;;;;;;;;;;4982074;28;20065;-74
2021/04/03 04:27:55;;;;;;;27.35;16.58;;;;;;;;;;4994540;28;20644;-75
2021/04/03 04:31:00;;;;;;;28.15;17.55;;;;;;;;;;4970979;28;20041;-75
2021/04/03 04:34:10;;;;;;;24.83;16.90;;;;;;;;;;4981728;28;20061;-73
2021/04/03 04:37:17;;;;;;;25.65;16.70;;;;;;;;;;4982258;28;20045;-75
2021/04/03 04:40:25;;;;;;;23.73;15.23;;;;;;;;;;4993283;28;20068;-75
2021/04/03 04:43:30;;;;;;;29.90;15.27;;;;;;;;;;4981889;28;20061;-74
2021/04/03 04:46:39;;;;;;;24.55;15.43;;;;;;;;;;4982206;28;20107;-75
2021/04/03 04:49:46;;;;;;;21.95;12.65;;;;;;;;;;4994187;28;20053;-76
2021/04/03 04:52:50;;;;;;;23.67;12.27;;;;;;;;;;4981257;28;20049;-75
2021/04/03 04:56:00;;;;;;;22.92;12.93;;;;;;;;;;4982468;28;20050;-74
2021/04/03 04:59:05;;;;;;;19.27;12.88;;;;;;;;;;4994087;28;20045;-75
2021/04/03 05:02:15;;;;;;;17.90;13.68;;;;;;;;;;4980994;28;20041;-69
2021/04/03 05:05:19;;;;;;;21.02;15.52;;;;;;;;;;4993450;28;20049;-68
2021/04/03 05:08:26;;;;;;;26.05;15.60;;;;;;;;;;4981600;28;20042;-67
2021/04/03 05:11:31;;;;;;;21.40;14.95;;;;;;;;;;4993136;28;20049;-68
2021/04/03 05:14:38;;;;;;;34.45;16.58;;;;;;;;;;4992937;28;20049;-68
2021/04/03 05:21:43;;;;;;;30.55;18.02;;;;;;;;;;4992690;28;20378;-67
2021/04/03 05:24:48;;;;;;;27.70;17.60;;;;;;;;;;4980788;28;20054;-68
2021/04/03 05:27:52;;;;;;;26.38;16.25;;;;;;;;;;4992917;28;20042;-68
2021/04/03 05:30:56;;;;;;;32.78;18.00;;;;;;;;;;4992781;28;20077;-68
2021/04/03 05:34:00;;;;;;;25.38;16.77;;;;;;;;;;4992532;28;20061;-66
2021/04/03 05:37:05;;;;;;;26.92;16.85;;;;;;;;;;4992434;28;20045;-68
2021/04/03 05:40:10;;;;;;;30.00;15.48;;;;;;;;;;4992562;28;20046;-68
2021/04/03 05:43:15;;;;;;;24.15;16.13;;;;;;;;;;4992160;28;20053;-69
2021/04/03 05:46:21;;;;;;;27.95;16.33;;;;;;;;;;4980669;28;20050;-68
2021/04/03 05:49:25;;;;;;;30.27;16.23;;;;;;;;;;4992183;28;20049;-67
2021/04/03 05:52:29;;;;;;;29.00;17.60;;;;;;;;;;4980370;28;20497;-67
2021/04/03 05:55:33;;;;;;;24.83;20.10;;;;;;;;;;4980258;28;20045;-68
2021/04/03 05:58:38;;;;;;;39.25;25.58;;;;;;;;;;4992508;28;20062;-67
2021/04/03 06:01:42;;;;;;;30.00;18.65;;;;;;;;;;4991951;28;20046;-69
2021/04/03 06:04:47;;;;;;;33.90;16.95;;;;;;;;;;4991574;28;20065;-67
2021/04/03 06:07:51;;;;;;;28.27;16.58;;;;;;;;;;4991611;28;20034;-67
2021/04/03 06:11:15;;;;;;;25.35;14.68;;;;;;;;;;4992073;28;20099;-67
2021/04/03 06:14:20;;;;;;;27.05;14.15;;;;;;;;;;4991794;28;20041;-69
2021/04/03 06:17:25;;;;;;;28.05;14.48;;;;;;;;;;4991893;28;20045;-67
2021/04/03 06:20:39;;;;;;;26.90;15.38;;;;;;;;;;4992080;28;20049;-67
2021/04/03 06:23:43;;;;;;;28.73;14.77;;;;;;;;;;4991653;28;20053;-67
2021/04/03 06:27:07;;;;;;;31.52;16.13;;;;;;;;;;4991750;28;20046;-68
2021/04/03 06:30:30;;;;;;;48.40;17.17;;;;;;;;;;4991883;28;20045;-67
2021/04/03 06:33:34;;;;;;;52.42;17.98;;;;;;;;;;4991535;28;20057;-64
2021/04/03 06:36:45;;;;;;;42.53;17.90;;;;;;;;;;4991925;28;20049;-66
2021/04/03 06:39:52;;;;;;;40.88;17.10;;;;;;;;;;4991756;28;20064;-68
2021/04/03 06:42:57;;;;;;;38.53;16.48;;;;;;;;;;4991594;28;20427;-66
2021/04/03 06:46:02;;;;;;;28.02;16.90;;;;;;;;;;4992122;28;20057;-67
2021/04/03 06:49:07;;;;;;;30.50;15.25;;;;;;;;;;4991987;28;20065;-68
2021/04/03 06:52:12;;;;;;;25.00;14.98;;;;;;;;;;4991633;28;20046;-70
2021/04/03 06:55:17;;;;;;;30.25;15.70;;;;;;;;;;4991804;28;20058;-70
2021/04/03 06:58:27;;;;;;;25.80;15.95;;;;;;;;;;4991822;28;20053;-69
2021/04/03 07:01:44;;;;;;;24.30;15.48;;;;;;;;;;4991434;28;20045;-67
2021/04/03 07:04:49;;;;;;;21.88;14.70;;;;;;;;;;4991439;28;20053;-71
2021/04/03 07:07:55;;;;;;;35.00;23.83;;;;;;;;;;4991653;28;20049;-67
2021/04/03 07:11:00;;;;;;;35.97;17.23;;;;;;;;;;4991403;28;20045;-67
2021/04/03 07:14:04;;;;;;;82.55;25.08;;;;;;;;;;4991690;28;20038;-67
2021/04/03 07:17:09;;;;;;;30.40;17.83;;;;;;;;;;4993268;28;20045;-68
2021/04/03 07:20:14;;;;;;;31.20;17.55;;;;;;;;;;4995411;28;20046;-67
2021/04/03 07:23:19;;;;;;;23.65;17.67;;;;;;;;;;4994607;28;20054;-66
2021/04/03 07:26:23;;;;;;;27.83;18.15;;;;;;;;;;4994639;28;20045;-68
2021/04/03 07:29:48;;;;;;;34.13;18.88;;;;;;;;;;4995135;28;20053;-68
2021/04/03 07:33:08;;;;;;;29.88;18.58;;;;;;;;;;4994319;28;20057;-68
2021/04/03 07:36:13;;;;;;;30.77;21.10;;;;;;;;;;4995014;28;20049;-67
2021/04/03 07:39:38;;;;;;;27.85;20.00;;;;;;;;;;4995405;28;20497;-68
2021/04/03 07:42:43;;;;;;;24.52;18.23;;;;;;;;;;4994745;28;20057;-67
2021/04/03 07:45:47;;;;;;;24.77;18.05;;;;;;;;;;4982432;28;20062;-67
2021/04/03 07:48:56;;;;;;;25.92;18.73;;;;;;;;;;4982628;28;20069;-69
2021/04/03 07:52:00;;;;;;;28.65;17.65;;;;;;;;;;4994474;28;20045;-68
2021/04/03 07:55:23;;;;;;;28.85;19.23;;;;;;;;;;4994714;28;20068;-67
2021/04/03 07:58:29;;;;;;;27.88;17.35;;;;;;;;;;4994446;28;20049;-67
2021/04/03 08:01:33;;;;;;;28.20;17.70;;;;;;;;;;4993998;28;20096;-68
2021/04/03 08:04:38;;;;;;;26.65;18.50;;;;;;;;;;4994090;28;20528;-66
2021/04/03 08:07:42;;;;;;;26.65;18.27;;;;;;;;;;4994066;28;20042;-67
2021/04/03 08:10:47;;;;;;;26.98;18.55;;;;;;;;;;4993863;28;20045;-66
2021/04/03 08:13:53;;;;;;;31.77;16.95;;;;;;;;;;4993960;28;20041;-67
2021/04/03 08:17:00;;;;;;;27.98;18.13;;;;;;;;;;4981827;28;20046;-66
2021/04/03 08:20:06;;;;;;;28.33;18.92;;;;;;;;;;4993910;28;20057;-67
2021/04/03 08:23:10;;;;;;;36.63;18.80;;;;;;;;;;4981880;28;20046;-67
2021/04/03 08:26:16;;;;;;;30.30;18.35;;;;;;;;;;4994014;28;20049;-67
2021/04/03 08:29:31;;;;;;;23.95;17.88;;;;;;;;;;4993378;28;20037;-67
2021/04/03 08:32:35;;;;;;;31.90;19.35;;;;;;;;;;4993236;28;20073;-68
2021/04/03 08:35:45;;;;;;;29.20;19.23;;;;;;;;;;4993703;28;20045;-68
2021/04/03 08:38:50;;;;;;;29.67;19.17;;;;;;;;;;4968769;28;20060;-67
2021/04/03 08:41:55;;;;;;;31.13;20.08;;;;;;;;;;4992994;28;20049;-67
2021/04/03 08:45:03;;;;;;;29.13;19.38;;;;;;;;;;4993607;28;20418;-69
2021/04/03 08:48:08;;;;;;;30.30;19.52;;;;;;;;;;4993359;28;20057;-68
2021/04/03 08:51:13;;;;;;;30.95;20.60;;;;;;;;;;4993420;28;20394;-68
2021/04/03 08:54:17;;;;;;;31.25;19.92;;;;;;;;;;4993503;28;20058;-67
2021/04/03 08:57:25;;;;;;;34.10;20.02;;;;;;;;;;4993318;28;20068;-68
2021/04/03 09:00:30;;;;;;;27.02;19.50;;;;;;;;;;4993188;28;20049;-71
2021/04/03 09:03:35;;;;;;;28.65;18.50;;;;;;;;;;4980922;28;20371;-68
2021/04/03 09:06:55;;;;;;;31.85;19.55;;;;;;;;;;4993179;28;20049;-68
2021/04/03 09:10:04;;;;;;;25.58;18.95;;;;;;;;;;4993012;28;20047;-68
2021/04/03 09:13:12;;;;;;;32.67;19.48;;;;;;;;;;4992115;28;20088;-68
2021/04/03 09:16:16;;;;;;;31.42;19.13;;;;;;;;;;4992716;28;20573;-67
2021/04/03 09:19:34;;;;;;;34.85;18.23;;;;;;;;;;4992941;28;20053;-69
2021/04/03 09:22:40;;;;;;;26.48;17.58;;;;;;;;;;4992979;28;20061;-68
2021/04/03 09:25:45;;;;;;;29.83;17.52;;;;;;;;;;4992531;28;20053;-68
2021/04/03 09:28:49;;;;;;;30.92;17.08;;;;;;;;;;4992921;28;20045;-67
2021/04/03 09:32:03;;;;;;;25.95;18.40;;;;;;;;;;4991830;28;20114;-68
2021/04/03 09:35:11;;;;;;;23.40;16.98;;;;;;;;;;4992345;28;20065;-67
2021/04/03 09:38:23;;;;;;;23.75;15.38;;;;;;;;;;4992665;28;20145;-68
2021/04/03 09:41:29;;;;;;;27.00;16.02;;;;;;;;;;4992185;28;20053;-67
2021/04/03 09:44:34;;;;;;;24.00;17.65;;;;;;;;;;4992258;28;20046;-68
2021/04/03 09:47:38;;;;;;;30.77;17.77;;;;;;;;;;4992363;28;20045;-68
2021/04/03 09:50:44;;;;;;;24.27;17.08;;;;;;;;;;4992194;28;20045;-68
2021/04/03 09:53:48;;;;;;;30.25;17.95;;;;;;;;;;4991991;28;20064;-67
2021/04/03 09:56:52;;;;;;;25.77;17.38;;;;;;;;;;4992058;28;20049;-67
2021/04/03 09:59:57;;;;;;;29.17;18.25;;;;;;;;;;4992229;28;20529;-67
2021/04/03 10:03:02;;;;;;;28.88;16.77;;;;;;;;;;4992151;28;20049;-70
2021/04/03 10:06:06;;;;;;;34.72;17.83;;;;;;;;;;4991899;28;20050;-67
2021/04/03 10:09:10;;;;;;;23.55;16.10;;;;;;;;;;4979742;28;20399;-68
2021/04/03 10:12:15;;;;;;;22.42;13.48;;;;;;;;;;4991585;28;20041;-67
2021/04/03 10:15:22;;;;;;;24.13;16.55;;;;;;;;;;4991875;28;20099;-68
2021/04/03 10:18:27;;;;;;;28.85;16.80;;;;;;;;;;4990908;28;20053;-68
2021/04/03 10:21:31;;;;;;;23.48;16.17;;;;;;;;;;4991859;28;20049;-68
2021/04/03 10:24:35;;;;;;;24.70;15.73;;;;;;;;;;4991823;28;20516;-66
2021/04/03 10:27:40;;;;;;;22.65;16.05;;;;;;;;;;4991977;28;20049;-67
2021/04/03 10:30:44;;;;;;;25.33;15.82;;;;;;;;;;4991891;28;20049;-68
2021/04/03 10:33:49;;;;;;;21.10;15.77;;;;;;;;;;4991256;28;20057;-68
2021/04/03 10:36:53;;;;;;;30.95;17.50;;;;;;;;;;4991485;28;20045;-67
2021/04/03 10:40:01;;;;;;;24.48;15.18;;;;;;;;;;4991147;28;20046;-67
2021/04/03 10:43:05;;;;;;;27.05;15.18;;;;;;;;;;4991248;28;20038;-67
2021/04/03 10:46:09;;;;;;;25.27;14.40;;;;;;;;;;4991539;28;20049;-68
2021/04/03 10:49:14;;;;;;;21.70;14.82;;;;;;;;;;4991786;28;20501;-68
2021/04/03 10:52:18;;;;;;;29.35;16.48;;;;;;;;;;4994912;28;20516;-68
2021/04/03 10:55:25;;;;;;;25.30;17.10;;;;;;;;;;4995067;28;20050;-69
2021/04/03 10:58:29;;;;;;;30.90;16.10;;;;;;;;;;4995399;28;20496;-67
2021/04/03 11:01:33;;;;;;;28.15;18.10;;;;;;;;;;4995105;28;20210;-69
2021/04/03 11:04:38;;;;;;;29.70;19.98;;;;;;;;;;4983083;28;20073;-66
2021/04/03 11:07:42;;;;;;;21.25;15.60;;;;;;;;;;4995129;28;20042;-67
2021/04/03 11:10:46;;;;;;;28.88;16.42;;;;;;;;;;4995214;28;20061;-67
2021/04/03 11:13:51;;;;;;;28.73;16.42;;;;;;;;;;4995511;28;20049;-68
2021/04/03 11:16:58;;;;;;;22.63;16.88;;;;;;;;;;4995244;28;20114;-70
2021/04/03 11:20:07;;;;;;;27.10;16.77;;;;;;;;;;4994335;28;20065;-67
2021/04/03 11:23:11;;;;;;;26.23;15.70;;;;;;;;;;4995073;28;20049;-68
2021/04/03 11:26:15;;;;;;;27.95;14.27;;;;;;;;;;4995300;28;20053;-70
2021/04/03 11:29:20;;;;;;;38.72;26.92;;;;;;;;;;4995090;28;20509;-68
2021/04/03 11:32:25;;;;;;;14.25;9.60;;;;;;;;;;4994412;28;20049;-68
2021/04/03 11:35:32;;;;;;;16.77;7.70;;;;;;;;;;4994430;28;20057;-68
2021/04/03 11:38:36;;;;;;;10.95;6.00;;;;;;;;;;4994939;28;20045;-68
2021/04/03 11:41:40;;;;;;;20.85;8.57;;;;;;;;;;4994597;28;20516;-67
2021/04/03 11:44:45;;;;;;;19.13;7.30;;;;;;;;;;4994560;28;20051;-68
2021/04/03 11:47:49;;;;;;;10.63;6.38;;;;;;;;;;4982818;28;20038;-68
2021/04/03 11:50:54;;;;;;;12.65;5.55;;;;;;;;;;4983068;28;20057;-68
2021/04/03 11:53:58;;;;;;;16.83;4.97;;;;;;;;;;4994666;28;20053;-68
2021/04/03 11:57:03;;;;;;;8.82;3.78;;;;;;;;;;4994591;28;20042;-67
2021/04/03 12:00:08;;;;;;;7.28;3.60;;;;;;;;;;4994079;28;20046;-69
2021/04/03 12:03:13;;;;;;;5.45;2.78;;;;;;;;;;4993344;28;20506;-67
2021/04/03 12:06:18;;;;;;;4.80;3.35;;;;;;;;;;4994193;28;20054;-68
2021/04/03 12:09:22;;;;;;;6.65;3.10;;;;;;;;;;4994010;28;20038;-67
2021/04/03 12:12:27;;;;;;;12.55;3.53;;;;;;;;;;4993371;28;20038;-69
2021/04/03 12:15:32;;;;;;;9.55;3.55;;;;;;;;;;4993300;28;20046;-68
2021/04/03 12:18:36;;;;;;;12.57;3.40;;;;;;;;;;4994448;28;20367;-66
2021/04/03 12:21:40;;;;;;;9.45;4.43;;;;;;;;;;4993856;28;20035;-68
2021/04/03 12:24:45;;;;;;;16.25;5.55;;;;;;;;;;4993877;28;20050;-69
2021/04/03 12:27:49;;;;;;;44.85;8.98;;;;;;;;;;4981751;28;20224;-68
2021/04/03 12:30:53;;;;;;;15.35;6.35;;;;;;;;;;4994287;28;20041;-68
2021/04/03 12:33:58;;;;;;;24.23;7.45;;;;;;;;;;4993809;28;20061;-68
2021/04/03 12:37:02;;;;;;;14.65;8.20;;;;;;;;;;4993714;28;20030;-68
2021/04/03 12:40:07;;;;;;;173.98;127.55;;;;;;;;;;4981400;28;20513;-68
2021/04/03 12:43:11;;;;;;;19.02;13.30;;;;;;;;;;4993771;28;20054;-68
2021/04/03 12:46:16;;;;;;;16.17;9.13;;;;;;;;;;4981409;28;20057;-69
2021/04/03 12:49:20;;;;;;;15.65;11.05;;;;;;;;;;4981500;28;20043;-69
2021/04/03 12:52:25;;;;;;;13.45;7.93;;;;;;;;;;4993795;28;20049;-67
2021/04/03 12:55:29;;;;;;;14.05;8.95;;;;;;;;;;4993754;28;20034;-68
2021/04/03 12:58:33;;;;;;;15.55;9.02;;;;;;;;;;4993354;28;20045;-68
2021/04/03 13:01:38;;;;;;;18.67;9.27;;;;;;;;;;4981596;28;20046;-68
2021/04/03 13:04:43;;;;;;;27.73;10.25;;;;;;;;;;4993274;28;20057;-67
2021/04/03 13:07:47;;;;;;;18.50;9.30;;;;;;;;;;4993034;28;20046;-67
2021/04/03 13:10:52;;;;;;;11.80;6.95;;;;;;;;;;4993039;28;20047;-67
2021/04/03 13:13:56;;;;;;;12.13;6.30;;;;;;;;;;4992337;28;20038;-67
2021/04/03 13:17:01;;;;;;;17.05;6.22;;;;;;;;;;4993280;28;20505;-69
2021/04/03 13:20:05;;;;;;;17.63;6.85;;;;;;;;;;4993104;28;20045;-68
2021/04/03 13:23:10;;;;;;;14.70;6.47;;;;;;;;;;4991384;28;20376;-67
2021/04/03 13:26:14;;;;;;;14.95;6.80;;;;;;;;;;4992186;28;20046;-69
2021/04/03 13:29:19;;;;;;;17.15;7.63;;;;;;;;;;4991991;28;20301;-68
2021/04/03 13:32:24;;;;;;;15.63;6.63;;;;;;;;;;4991701;28;20049;-69
2021/04/03 13:35:28;;;;;;;13.40;6.78;;;;;;;;;;4992731;28;20050;-68
2021/04/03 13:38:33;;;;;;;19.88;7.95;;;;;;;;;;4992405;28;20406;-68
2021/04/03 13:41:37;;;;;;;11.07;6.47;;;;;;;;;;4992519;28;20046;-67
2021/04/03 13:44:42;;;;;;;11.75;6.13;;;;;;;;;;4992428;28;20046;-68
2021/04/03 13:47:46;;;;;;;12.48;5.88;;;;;;;;;;4992584;28;20046;-68
2021/04/03 13:50:51;;;;;;;10.88;6.40;;;;;;;;;;4992482;28;20050;-68
2021/04/03 13:53:55;;;;;;;14.05;6.40;;;;;;;;;;4991538;28;20047;-67
2021/04/03 13:56:59;;;;;;;21.05;7.78;;;;;;;;;;4980424;28;20038;-68
2021/04/03 14:00:05;;;;;;;17.50;6.78;;;;;;;;;;4992005;28;20050;-69
2021/04/03 14:03:17;;;;;;;28.63;7.82;;;;;;;;;;4992432;28;20502;-68
2021/04/03 14:06:21;;;;;;;15.73;6.25;;;;;;;;;;4992279;28;20053;-68
2021/04/03 14:09:25;;;;;;;17.88;7.20;;;;;;;;;;4992192;28;20038;-67
2021/04/03 14:12:30;;;;;;;20.25;7.30;;;;;;;;;;4992081;28;20386;-67
2021/04/03 14:15:34;;;;;;;16.85;6.88;;;;;;;;;;4991865;28;20049;-68
2021/04/03 14:18:41;;;;;;;18.05;7.57;;;;;;;;;;4992225;28;20053;-70
2021/04/03 14:21:45;;;;;;;17.70;8.32;;;;;;;;;;4992200;28;20030;-69
2021/04/03 14:24:49;;;;;;;18.17;7.60;;;;;;;;;;4991979;28;20042;-68
2021/04/03 14:27:54;;;;;;;15.20;6.97;;;;;;;;;;4992003;28;20038;-69
2021/04/03 14:30:59;;;;;;;12.93;6.82;;;;;;;;;;4991668;28;20041;-69
2021/04/03 14:34:03;;;;;;;22.55;7.93;;;;;;;;;;4991555;28;20307;-68
2021/04/03 14:37:07;;;;;;;15.73;6.90;;;;;;;;;;4991821;28;20050;-69
2021/04/03 14:40:12;;;;;;;11.68;6.07;;;;;;;;;;4990859;28;20039;-68
2021/04/03 14:43:16;;;;;;;14.63;6.22;;;;;;;;;;4991697;28;20041;-67
2021/04/03 14:46:21;;;;;;;13.55;5.43;;;;;;;;;;4991965;28;20057;-68
2021/04/03 14:49:25;;;;;;;20.25;6.43;;;;;;;;;;4991571;28;20045;-67
2021/04/03 14:52:29;;;;;;;15.02;6.45;;;;;;;;;;4991852;28;20046;-67
2021/04/03 14:55:34;;;;;;;19.35;8.52;;;;;;;;;;4991435;28;20535;-69
2021/04/03 14:58:38;;;;;;;22.63;9.98;;;;;;;;;;4992072;28;20038;-68
2021/04/03 15:01:43;;;;;;;17.48;8.00;;;;;;;;;;4990689;28;20050;-69
2021/04/03 15:04:47;;;;;;;24.52;11.40;;;;;;;;;;4990421;28;20048;-67
2021/04/03 15:07:52;;;;;;;22.33;10.73;;;;;;;;;;4991210;28;20049;-67
2021/04/03 15:11:00;;;;;;;22.55;10.48;;;;;;;;;;4991689;28;20053;-68
2021/04/03 15:14:04;;;;;;;11.57;7.25;;;;;;;;;;4990396;28;20058;-71
2021/04/03 15:17:09;;;;;;;13.30;5.68;;;;;;;;;;4991473;28;20034;-68
2021/04/03 15:20:13;;;;;;;14.88;5.90;;;;;;;;;;4991282;28;20417;-68
2021/04/03 15:23:17;;;;;;;14.15;7.70;;;;;;;;;;4991212;28;20045;-67
2021/04/03 15:26:21;;;;;;;11.88;7.70;;;;;;;;;;4979428;28;20505;-68
2021/04/03 15:29:26;;;;;;;9.00;5.72;;;;;;;;;;4991060;28;20038;-69
2021/04/03 15:32:30;;;;;;;18.45;5.55;;;;;;;;;;4990992;28;20046;-66
2021/04/03 15:35:34;;;;;;;9.82;6.22;;;;;;;;;;4979098;28;20398;-68
2021/04/03 15:38:39;;;;;;;12.43;4.93;;;;;;;;;;4993396;28;20395;-68
2021/04/03 15:41:43;;;;;;;12.50;5.97;;;;;;;;;;4994955;28;20038;-68
2021/04/03 15:44:47;;;;;;;16.55;5.95;;;;;;;;;;4994555;28;20050;-68
2021/04/03 15:47:52;;;;;;;14.25;5.65;;;;;;;;;;4994608;28;20038;-68
2021/04/03 15:50:58;;;;;;;9.18;5.22;;;;;;;;;;4994308;28;20050;-68
2021/04/03 15:54:03;;;;;;;11.80;6.15;;;;;;;;;;4994206;28;20031;-68
2021/04/03 15:57:12;;;;;;;13.32;5.85;;;;;;;;;;4994542;28;20039;-67
2021/04/03 16:00:18;;;;;;;15.05;6.38;;;;;;;;;;4994558;28;20525;-68
2021/04/03 16:03:23;;;;;;;15.88;6.43;;;;;;;;;;4994369;28;20038;-69
2021/04/03 16:06:27;;;;;;;11.23;6.50;;;;;;;;;;4994451;28;20045;-68
2021/04/03 16:09:32;;;;;;;14.07;5.78;;;;;;;;;;4994106;28;20038;-67
2021/04/03 16:12:36;;;;;;;7.13;4.13;;;;;;;;;;4994519;28;20053;-67
2021/04/03 16:15:41;;;;;;;16.73;4.80;;;;;;;;;;4994531;28;20379;-67
2021/04/03 16:18:46;;;;;;;16.38;5.78;;;;;;;;;;4994523;28;20042;-68
2021/04/03 16:21:50;;;;;;;11.50;6.75;;;;;;;;;;4994415;28;20507;-69
2021/04/03 16:24:54;;;;;;;10.27;6.30;;;;;;;;;;4982079;28;20050;-68
2021/04/03 16:27:58;;;;;;;15.93;6.50;;;;;;;;;;4994252;28;20382;-68
2021/04/03 16:31:03;;;;;;;19.40;8.23;;;;;;;;;;4994046;28;20049;-69
2021/04/03 16:34:08;;;;;;;18.15;7.90;;;;;;;;;;4993925;28;20054;-68
2021/04/03 16:37:12;;;;;;;14.82;6.30;;;;;;;;;;4994039;28;20070;-68
2021/04/03 16:40:17;;;;;;;9.50;5.07;;;;;;;;;;4982162;28;20394;-68
2021/04/03 16:43:21;;;;;;;15.73;7.03;;;;;;;;;;4993871;28;20043;-67
2021/04/03 16:46:26;;;;;;;24.45;8.65;;;;;;;;;;4981891;28;20053;-68
2021/04/03 16:49:30;;;;;;;18.55;11.45;;;;;;;;;;4993861;28;20041;-71
2021/04/03 16:52:34;;;;;;;19.58;12.35;;;;;;;;;;4993516;28;20504;-68
2021/04/03 16:55:39;;;;;;;21.60;11.85;;;;;;;;;;4993410;28;20057;-68
2021/04/03 16:58:43;;;;;;;17.25;11.77;;;;;;;;;;4992633;28;20053;-68
2021/04/03 17:01:48;;;;;;;21.92;11.02;;;;;;;;;;4993443;28;20068;-69
2021/04/03 17:04:52;;;;;;;23.83;10.27;;;;;;;;;;4993291;28;20053;-68
2021/04/03 17:07:57;;;;;;;22.25;10.55;;;;;;;;;;4993443;28;20390;-68
2021/04/03 17:11:01;;;;;;;22.38;10.95;;;;;;;;;;4993169;28;20053;-68
2021/04/03 17:14:06;;;;;;;20.10;10.02;;;;;;;;;;4992673;28;20042;-67
2021/04/03 17:17:10;;;;;;;21.42;10.75;;;;;;;;;;4992938;28;20049;-67
2021/04/03 17:20:17;;;;;;;21.65;10.30;;;;;;;;;;4992627;28;20386;-69
2021/04/03 17:23:22;;;;;;;21.85;10.10;;;;;;;;;;4980673;28;20049;-69
2021/04/03 17:26:27;;;;;;;20.27;11.13;;;;;;;;;;4992703;28;20053;-68
2021/04/03 17:29:32;;;;;;;22.67;11.52;;;;;;;;;;4992808;28;20050;-71
2021/04/03 17:32:36;;;;;;;17.20;10.32;;;;;;;;;;4992307;28;20604;-67
2021/04/03 17:35:40;;;;;;;22.33;11.45;;;;;;;;;;4992621;28;20041;-68
2021/04/03 17:38:45;;;;;;;19.02;11.73;;;;;;;;;;4992488;28;20057;-68
2021/04/03 17:41:49;;;;;;;28.10;15.57;;;;;;;;;;4992365;28;20045;-67
2021/04/03 17:44:54;;;;;;;25.88;14.38;;;;;;;;;;4992267;28;20061;-76
2021/04/03 17:47:58;;;;;;;24.95;13.48;;;;;;;;;;4993565;28;20049;-76
2021/04/03 17:51:03;;;;;;;25.45;14.18;;;;;;;;;;4992863;28;20049;-75
2021/04/03 17:54:07;;;;;;;28.80;17.95;;;;;;;;;;4993478;28;20052;-76
2021/04/03 17:57:12;;;;;;;25.65;13.05;;;;;;;;;;4993298;28;20041;-76
2021/04/03 18:00:16;;;;;;;23.50;15.27;;;;;;;;;;4992721;28;20053;-76
2021/04/03 18:03:21;;;;;;;29.30;15.48;;;;;;;;;;4993339;28;20049;-75
2021/04/03 18:06:25;;;;;;;34.90;15.77;;;;;;;;;;4992740;28;20050;-76
2021/04/03 18:09:29;;;;;;;28.17;14.07;;;;;;;;;;4992721;28;20049;-75